Time;durP1;ratioP1;P1;durP2;ratioP2;P2;SDS_P1;SDS_P2;PMS_P1;PMS_P2;Temp;Humidity;BMP_temperature;BMP_pressure;BME280_temperature;BME280_humidity;BME280_pressure;Samples;Min_cycle;Max_cycle;Signal;HPM_P1;HPM_P2
2023/08/07 00:01:47;;;;;;;1.85;1.33;;;10.90;84.30;;;;;;5015131;28;20072;-80
2023/08/07 00:04:13;;;;;;;2.10;1.35;;;10.90;83.50;;;;;;5015080;28;20125;-80
2023/08/07 00:06:38;;;;;;;4.95;1.60;;;10.90;83.30;;;;;;5014953;28;20046;-80
2023/08/07 00:09:04;;;;;;;2.67;1.35;;;10.90;83.30;;;;;;5015117;28;20026;-80
2023/08/07 00:11:30;;;;;;;6.15;1.75;;;11.00;82.60;;;;;;5015086;28;20092;-80
2023/08/07 00:13:55;;;;;;;3.92;1.33;;;11.00;82.80;;;;;;5015083;28;20026;-80
2023/08/07 00:16:21;;;;;;;5.05;1.65;;;11.00;82.70;;;;;;5015006;28;20452;-80
2023/08/07 00:18:47;;;;;;;3.88;1.73;;;11.10;81.50;;;;;;5014911;28;20022;-80
2023/08/07 00:21:12;;;;;;;2.00;1.80;;;11.10;82.00;;;;;;5015064;28;20032;-79
2023/08/07 00:23:38;;;;;;;2.45;1.70;;;11.10;81.60;;;;;;5014915;28;20033;-80
2023/08/07 00:26:03;;;;;;;3.33;1.77;;;11.20;81.10;;;;;;5014849;28;20049;-79
2023/08/07 00:28:29;;;;;;;4.53;1.83;;;11.20;81.10;;;;;;5014789;28;20022;-79
2023/08/07 00:30:55;;;;;;;2.88;1.75;;;11.20;81.10;;;;;;5032445;28;20381;-80
2023/08/07 00:33:20;;;;;;;3.78;1.77;;;11.20;81.40;;;;;;5034256;28;20381;-77
2023/08/07 00:35:46;;;;;;;2.10;1.42;;;11.30;81.30;;;;;;5034488;28;20053;-80
2023/08/07 00:38:12;;;;;;;6.28;2.20;;;11.20;81.40;;;;;;5034743;28;20029;-81
2023/08/07 00:40:41;;;;;;;2.78;1.88;;;11.30;80.70;;;;;;5034713;28;20079;-80
2023/08/07 00:43:06;;;;;;;3.08;2.00;;;11.30;81.00;;;;;;5034683;28;20081;-81
2023/08/07 00:45:37;;;;;;;5.03;1.70;;;11.30;80.70;;;;;;5034267;28;20088;-80
2023/08/07 00:48:03;;;;;;;2.13;1.80;;;11.30;81.50;;;;;;5034085;28;20097;-81
2023/08/07 00:50:29;;;;;;;3.25;1.65;;;11.30;81.20;;;;;;5034133;28;20105;-81
2023/08/07 00:52:55;;;;;;;4.93;2.03;;;11.30;81.00;;;;;;5034153;28;20478;-81
2023/08/07 00:55:21;;;;;;;4.85;2.35;;;11.30;81.10;;;;;;5015946;28;20024;-81
2023/08/07 00:57:46;;;;;;;4.15;1.60;;;11.20;80.90;;;;;;5034162;28;20030;-74
2023/08/07 01:00:14;;;;;;;3.42;2.00;;;11.20;81.50;;;;;;5034015;28;20049;-73
2023/08/07 01:02:40;;;;;;;2.85;1.92;;;11.20;81.30;;;;;;5033949;28;20388;-74
2023/08/07 01:05:05;;;;;;;5.90;2.47;;;11.30;81.20;;;;;;5033596;28;20056;-74
2023/08/07 01:07:31;;;;;;;3.03;1.77;;;11.30;81.40;;;;;;5033807;28;20037;-73
2023/08/07 01:09:57;;;;;;;4.38;1.92;;;11.30;81.30;;;;;;5033693;28;20454;-74
2023/08/07 01:12:32;;;;;;;2.75;1.73;;;11.20;82.00;;;;;;5033682;28;20359;-75
2023/08/07 01:15:24;;;;;;;4.85;2.30;;;11.20;82.20;;;;;;5033546;28;20049;-75
2023/08/07 01:17:52;;;;;;;4.07;1.80;;;11.20;81.70;;;;;;5027321;28;20133;-74
2023/08/07 01:20:18;;;;;;;3.10;1.83;;;11.30;81.40;;;;;;5033459;28;20071;-75
2023/08/07 01:22:43;;;;;;;3.33;1.77;;;11.30;81.60;;;;;;5033429;28;20068;-74
2023/08/07 01:25:09;;;;;;;4.53;2.05;;;11.20;81.30;;;;;;5033289;28;20432;-73
2023/08/07 01:27:53;;;;;;;4.50;1.65;;;11.30;81.40;;;;;;5033550;28;20566;-75
2023/08/07 01:30:37;;;;;;;3.50;1.90;;;11.30;81.60;;;;;;5033038;28;20489;-73
2023/08/07 01:33:18;;;;;;;6.05;2.42;;;11.30;81.80;;;;;;5033331;28;20034;-72
2023/08/07 01:35:47;;;;;;;2.13;1.60;;;11.30;81.60;;;;;;5033203;28;20021;-75
2023/08/07 01:38:13;;;;;;;4.30;2.20;;;11.30;81.50;;;;;;5033180;28;20025;-77
2023/08/07 01:40:40;;;;;;;4.40;2.08;;;11.30;81.40;;;;;;5033001;28;20017;-75
2023/08/07 01:43:06;;;;;;;3.05;1.30;;;11.20;81.70;;;;;;5015480;28;20029;-72
2023/08/07 01:45:31;;;;;;;3.92;1.88;;;11.20;81.60;;;;;;5033004;28;20052;-75
2023/08/07 01:47:57;;;;;;;4.13;1.85;;;11.20;82.10;;;;;;5015486;28;20026;-72
2023/08/07 01:50:24;;;;;;;2.28;1.63;;;11.20;81.80;;;;;;5033172;28;20100;-73
2023/08/07 01:52:50;;;;;;;3.83;2.03;;;11.20;82.50;;;;;;5032977;28;20029;-69
2023/08/07 01:55:17;;;;;;;3.88;1.70;;;11.20;81.70;;;;;;5033129;28;20029;-70
2023/08/07 01:57:42;;;;;;;3.00;1.70;;;11.20;81.70;;;;;;5033087;28;20025;-70
2023/08/07 02:00:08;;;;;;;3.70;2.00;;;11.10;82.10;;;;;;5032995;28;20095;-70
2023/08/07 02:02:35;;;;;;;4.05;2.38;;;11.00;82.00;;;;;;5015031;28;20076;-70
2023/08/07 02:05:01;;;;;;;4.57;2.30;;;11.00;82.20;;;;;;5032727;28;20092;-73
2023/08/07 02:07:26;;;;;;;4.43;2.00;;;11.10;82.10;;;;;;5015135;28;20033;-70
2023/08/07 02:09:52;;;;;;;5.13;2.33;;;11.00;83.00;;;;;;5033010;28;20025;-71
2023/08/07 02:12:17;;;;;;;2.58;1.75;;;11.00;82.00;;;;;;5032950;28;20109;-69
2023/08/07 02:14:43;;;;;;;4.28;2.17;;;11.00;82.10;;;;;;5034728;28;20052;-71
2023/08/07 02:17:09;;;;;;;3.47;2.08;;;11.10;82.00;;;;;;5033045;28;20496;-70
2023/08/07 02:19:34;;;;;;;3.30;1.63;;;11.10;82.00;;;;;;5032669;28;20035;-70
2023/08/07 02:22:01;;;;;;;6.45;1.67;;;11.10;81.60;;;;;;5032794;28;20470;-70
2023/08/07 02:24:27;;;;;;;4.40;2.00;;;11.10;81.60;;;;;;5032668;28;20183;-72
2023/08/07 02:26:52;;;;;;;4.82;1.85;;;11.10;81.30;;;;;;5032768;28;20108;-74
2023/08/07 02:29:18;;;;;;;5.00;2.25;;;11.10;81.10;;;;;;5032888;28;20093;-72
2023/08/07 02:31:43;;;;;;;9.18;2.30;;;11.00;81.20;;;;;;5032775;28;20069;-73
2023/08/07 02:34:09;;;;;;;5.25;2.13;;;11.10;81.20;;;;;;5032732;28;20486;-74
2023/08/07 02:36:35;;;;;;;7.05;2.03;;;11.00;80.60;;;;;;5032584;28;20045;-73
2023/08/07 02:39:00;;;;;;;4.90;1.88;;;11.10;80.40;;;;;;5015044;28;20025;-74
2023/08/07 02:41:26;;;;;;;5.05;1.88;;;11.10;80.40;;;;;;5014924;28;20029;-72
2023/08/07 02:43:51;;;;;;;3.40;2.22;;;11.00;79.90;;;;;;5032499;28;20079;-71
2023/08/07 02:46:17;;;;;;;4.45;1.90;;;11.10;80.00;;;;;;5032392;28;20068;-70
2023/08/07 02:48:44;;;;;;;5.25;1.88;;;11.10;80.20;;;;;;5032584;28;20037;-70
2023/08/07 02:51:10;;;;;;;5.97;1.77;;;11.10;79.90;;;;;;5032332;28;20068;-71
2023/08/07 02:53:35;;;;;;;4.70;1.95;;;11.10;80.10;;;;;;5032460;28;20025;-71
2023/08/07 02:56:01;;;;;;;5.68;2.13;;;11.20;80.00;;;;;;5032558;28;20099;-74
2023/08/07 02:58:26;;;;;;;3.92;1.60;;;11.20;79.80;;;;;;5032404;28;20702;-73
2023/08/07 03:00:52;;;;;;;4.13;1.90;;;11.10;80.10;;;;;;5032500;28;20032;-70
2023/08/07 03:03:17;;;;;;;4.97;2.10;;;11.20;79.90;;;;;;5032318;28;20018;-69
2023/08/07 03:05:50;;;;;;;4.45;1.90;;;11.20;79.70;;;;;;5032078;28;20263;-69
2023/08/07 03:08:16;;;;;;;6.00;2.53;;;11.10;79.80;;;;;;5032549;28;20036;-71
2023/08/07 03:10:41;;;;;;;5.90;1.92;;;11.10;79.80;;;;;;5016843;28;20030;-69
2023/08/07 03:13:07;;;;;;;3.75;1.90;;;11.10;80.20;;;;;;5035936;28;20021;-69
2023/08/07 03:15:32;;;;;;;6.20;2.05;;;11.10;80.30;;;;;;5035944;28;20029;-69
2023/08/07 03:17:58;;;;;;;4.22;1.80;;;11.10;80.30;;;;;;5035668;28;20044;-70
2023/08/07 03:20:23;;;;;;;4.65;2.10;;;11.10;80.10;;;;;;5035713;28;20083;-69
2023/08/07 03:22:49;;;;;;;3.60;1.77;;;11.20;79.90;;;;;;5035736;28;20025;-73
2023/08/07 03:25:14;;;;;;;5.38;2.05;;;11.10;80.10;;;;;;5035633;28;20033;-74
2023/08/07 03:27:40;;;;;;;4.55;1.90;;;11.10;80.30;;;;;;5035787;28;20040;-74
2023/08/07 03:30:06;;;;;;;3.88;1.55;;;11.10;80.10;;;;;;5035678;28;20057;-70
2023/08/07 03:32:32;;;;;;;3.08;1.75;;;11.10;80.00;;;;;;5035608;28;20025;-75
2023/08/07 03:34:57;;;;;;;4.50;1.80;;;11.20;80.20;;;;;;5035380;28;20071;-73
2023/08/07 03:37:23;;;;;;;5.63;2.25;;;11.20;80.10;;;;;;5035547;28;20029;-70
2023/08/07 03:39:48;;;;;;;5.13;2.05;;;11.20;79.90;;;;;;5035419;28;20075;-70
2023/08/07 03:42:16;;;;;;;2.42;1.92;;;11.30;80.00;;;;;;5035290;28;20114;-70
2023/08/07 03:44:42;;;;;;;4.13;1.67;;;11.30;79.60;;;;;;5035418;28;20029;-70
2023/08/07 03:47:08;;;;;;;4.70;1.88;;;11.30;78.90;;;;;;5035247;28;20041;-70
2023/08/07 03:49:33;;;;;;;3.05;1.98;;;11.20;79.40;;;;;;5035065;28;20435;-70
2023/08/07 03:51:59;;;;;;;4.40;1.83;;;11.10;79.40;;;;;;5035213;28;20441;-70
2023/08/07 03:54:25;;;;;;;4.10;2.13;;;11.10;79.50;;;;;;5035172;28;20026;-70
2023/08/07 03:56:51;;;;;;;6.05;2.30;;;11.00;79.40;;;;;;5017301;28;20024;-69
2023/08/07 03:59:17;;;;;;;2.88;1.77;;;11.00;79.50;;;;;;5035085;28;20053;-70
2023/08/07 04:01:42;;;;;;;4.53;1.90;;;11.00;79.60;;;;;;5034956;28;20076;-70
2023/08/07 04:04:08;;;;;;;2.58;1.85;;;10.90;79.90;;;;;;5034573;28;20037;-75
2023/08/07 04:06:33;;;;;;;3.65;2.10;;;10.90;79.50;;;;;;5035027;28;20052;-70
2023/08/07 04:08:59;;;;;;;3.55;1.92;;;11.00;79.30;;;;;;5034908;28;20064;-70
2023/08/07 04:11:25;;;;;;;4.55;2.00;;;11.00;79.10;;;;;;5017002;28;20528;-70
2023/08/07 04:13:50;;;;;;;3.10;1.98;;;11.00;79.20;;;;;;5034588;28;20025;-79
2023/08/07 04:16:16;;;;;;;5.15;2.05;;;11.00;79.30;;;;;;5034724;28;20033;-69
2023/08/07 04:18:42;;;;;;;4.25;1.98;;;10.90;79.60;;;;;;5034505;28;20022;-70
2023/08/07 04:21:08;;;;;;;3.50;2.05;;;10.90;79.40;;;;;;5033726;28;20092;-69
2023/08/07 04:23:33;;;;;;;5.50;2.17;;;10.90;79.30;;;;;;5016974;28;20101;-69
2023/08/07 04:25:59;;;;;;;6.43;2.17;;;10.80;79.50;;;;;;5034412;28;20068;-69
2023/08/07 04:28:27;;;;;;;4.25;1.83;;;10.70;79.60;;;;;;5034373;28;20053;-69
2023/08/07 04:30:53;;;;;;;5.22;2.22;;;10.70;79.90;;;;;;5034289;28;20474;-69
2023/08/07 04:33:19;;;;;;;4.95;2.15;;;10.70;79.90;;;;;;5034215;28;20026;-70
2023/08/07 04:35:46;;;;;;;5.13;2.13;;;10.70;79.70;;;;;;5034031;28;20022;-69
2023/08/07 04:38:12;;;;;;;3.97;1.90;;;10.80;78.90;;;;;;5034430;28;20079;-69
2023/08/07 04:40:43;;;;;;;3.90;1.83;;;10.70;79.10;;;;;;5034144;28;20424;-72
2023/08/07 04:43:08;;;;;;;2.67;2.10;;;10.70;79.00;;;;;;5034157;28;20036;-70
2023/08/07 04:45:33;;;;;;;6.32;2.20;;;10.80;78.90;;;;;;5034135;28;20041;-70
2023/08/07 04:47:59;;;;;;;6.32;1.98;;;10.80;78.30;;;;;;5034085;28;20517;-69
2023/08/07 04:50:24;;;;;;;3.70;1.98;;;10.90;78.00;;;;;;5033939;28;20033;-69
2023/08/07 04:52:50;;;;;;;4.47;2.00;;;10.80;78.10;;;;;;5034309;28;20029;-69
2023/08/07 04:55:16;;;;;;;2.75;1.67;;;10.90;78.10;;;;;;5016289;28;20013;-70
2023/08/07 04:57:41;;;;;;;3.75;2.38;;;11.00;77.90;;;;;;5034073;28;20025;-70
2023/08/07 05:00:08;;;;;;;3.92;2.28;;;11.00;77.60;;;;;;5034018;28;20109;-71
2023/08/07 05:02:33;;;;;;;7.40;2.30;;;10.90;77.90;;;;;;5033980;28;20061;-79
2023/08/07 05:04:59;;;;;;;3.10;1.98;;;11.00;77.50;;;;;;5033706;28;20045;-69
2023/08/07 05:07:24;;;;;;;3.20;2.10;;;11.10;77.30;;;;;;5033579;28;20104;-70
2023/08/07 05:09:50;;;;;;;4.20;1.88;;;11.10;77.10;;;;;;5016022;28;20093;-72
2023/08/07 05:12:16;;;;;;;6.07;2.47;;;11.20;77.10;;;;;;5016005;28;20057;-78
2023/08/07 05:14:41;;;;;;;3.10;1.80;;;11.20;77.00;;;;;;5034018;28;20056;-77
2023/08/07 05:17:07;;;;;;;2.95;1.73;;;11.20;77.20;;;;;;5033861;28;20017;-77
2023/08/07 05:19:32;;;;;;;4.30;2.08;;;11.20;77.00;;;;;;5033704;28;20034;-79
2023/08/07 05:21:58;;;;;;;4.57;2.00;;;11.20;76.60;;;;;;5033847;28;20029;-79
2023/08/07 05:24:23;;;;;;;6.53;1.95;;;11.30;76.80;;;;;;5033556;28;20061;-79
2023/08/07 05:26:49;;;;;;;4.32;2.13;;;11.30;76.50;;;;;;5038819;28;20057;-69
2023/08/07 05:29:14;;;;;;;5.38;2.45;;;11.40;76.40;;;;;;5039337;28;20032;-69
2023/08/07 05:31:40;;;;;;;5.80;2.63;;;11.40;76.20;;;;;;5035185;28;20041;-69
2023/08/07 05:34:06;;;;;;;5.82;2.03;;;11.50;76.10;;;;;;5035982;28;20053;-69
2023/08/07 05:36:32;;;;;;;4.18;2.15;;;11.50;75.90;;;;;;5033440;28;20037;-70
2023/08/07 05:38:58;;;;;;;4.15;1.75;;;11.60;75.50;;;;;;5033218;28;20369;-69
2023/08/07 05:41:24;;;;;;;4.32;2.00;;;11.60;75.40;;;;;;5033213;28;20108;-69
2023/08/07 05:43:49;;;;;;;5.60;2.22;;;11.60;75.40;;;;;;5033124;28;20067;-70
2023/08/07 05:46:15;;;;;;;4.35;2.08;;;11.80;74.90;;;;;;5032908;28;20160;-70
2023/08/07 05:48:40;;;;;;;4.65;1.70;;;11.90;74.70;;;;;;5032919;28;20049;-69
2023/08/07 05:51:06;;;;;;;5.40;2.13;;;11.90;74.20;;;;;;5032709;28;20021;-70
2023/08/07 05:53:32;;;;;;;4.82;1.80;;;11.90;74.40;;;;;;5032854;28;20022;-70
2023/08/07 05:55:58;;;;;;;4.30;1.98;;;12.00;73.80;;;;;;5032758;28;20079;-70
2023/08/07 05:58:23;;;;;;;3.47;1.92;;;12.10;74.00;;;;;;5032960;28;20086;-70
2023/08/07 06:00:49;;;;;;;7.22;2.00;;;12.20;73.10;;;;;;5032923;28;20029;-70
2023/08/07 06:03:14;;;;;;;5.00;2.15;;;12.10;73.30;;;;;;5033010;28;20022;-71
2023/08/07 06:05:40;;;;;;;4.28;1.90;;;12.10;73.90;;;;;;5032856;28;20504;-71
2023/08/07 06:08:05;;;;;;;3.72;2.63;;;12.20;73.70;;;;;;5032768;28;20458;-70
2023/08/07 06:10:31;;;;;;;4.03;1.92;;;12.30;74.40;;;;;;5032771;28;20022;-70
2023/08/07 06:12:56;;;;;;;5.57;2.00;;;12.30;73.30;;;;;;5033068;28;20109;-70
2023/08/07 06:15:22;;;;;;;2.17;1.70;;;12.40;73.30;;;;;;5033425;28;20501;-70
2023/08/07 06:17:48;;;;;;;4.40;1.88;;;12.60;72.80;;;;;;5032789;28;20474;-71
2023/08/07 06:20:15;;;;;;;3.40;1.75;;;12.60;72.20;;;;;;5032583;28;20550;-71
2023/08/07 06:22:41;;;;;;;12.02;3.00;;;12.60;71.80;;;;;;5032499;28;20055;-70
2023/08/07 06:25:08;;;;;;;3.40;2.08;;;12.60;72.20;;;;;;5032647;28;20462;-72
2023/08/07 06:27:33;;;;;;;4.35;1.92;;;12.90;71.70;;;;;;5032688;28;20032;-71
2023/08/07 06:29:59;;;;;;;4.13;1.60;;;12.80;70.00;;;;;;5032609;28;20025;-71
2023/08/07 06:32:26;;;;;;;4.85;1.90;;;12.90;70.20;;;;;;5032692;28;20033;-70
2023/08/07 06:34:52;;;;;;;3.08;1.70;;;12.90;70.50;;;;;;5032727;28;20032;-70
2023/08/07 06:37:18;;;;;;;2.22;1.67;;;12.80;70.40;;;;;;5032704;28;20048;-70
2023/08/07 06:39:43;;;;;;;3.88;1.77;;;12.80;70.80;;;;;;5032650;28;20573;-70
2023/08/07 06:42:09;;;;;;;3.05;1.60;;;12.90;69.70;;;;;;5032508;28;20029;-69
2023/08/07 06:44:34;;;;;;;2.63;1.85;;;12.90;69.10;;;;;;5033138;28;20029;-70
2023/08/07 06:47:00;;;;;;;4.38;1.80;;;13.00;69.50;;;;;;5036256;28;20069;-71
2023/08/07 06:49:25;;;;;;;3.85;2.20;;;12.90;69.70;;;;;;5036389;28;20096;-71
2023/08/07 06:51:51;;;;;;;3.97;1.83;;;12.80;71.00;;;;;;5018637;28;20030;-69
2023/08/07 06:54:16;;;;;;;2.15;1.65;;;12.70;71.30;;;;;;5038255;28;20041;-71
2023/08/07 06:56:43;;;;;;;5.13;2.25;;;12.60;72.10;;;;;;5036366;28;20029;-70
2023/08/07 06:59:09;;;;;;;3.17;2.00;;;12.70;73.40;;;;;;5036116;28;20040;-71
2023/08/07 07:01:34;;;;;;;2.45;1.67;;;12.60;72.90;;;;;;5035609;28;20026;-73
2023/08/07 07:04:00;;;;;;;5.38;2.17;;;12.70;72.80;;;;;;5035680;28;20049;-70
2023/08/07 07:06:26;;;;;;;2.15;1.60;;;12.70;73.30;;;;;;5035988;28;20036;-69
2023/08/07 07:08:54;;;;;;;2.42;1.90;;;12.80;73.50;;;;;;5035692;28;20521;-70
2023/08/07 07:11:22;;;;;;;2.40;1.48;;;12.90;74.30;;;;;;5035514;28;20030;-70
2023/08/07 07:13:48;;;;;;;2.63;1.80;;;13.00;73.40;;;;;;5035605;28;20021;-69
2023/08/07 07:16:13;;;;;;;2.67;1.58;;;13.00;71.80;;;;;;5035841;28;20125;-70
2023/08/07 07:18:39;;;;;;;3.70;1.95;;;12.90;71.70;;;;;;5035172;28;20025;-75
2023/08/07 07:21:05;;;;;;;5.57;2.10;;;12.90;72.30;;;;;;5035551;28;20025;-71
2023/08/07 07:23:30;;;;;;;3.08;1.52;;;12.80;72.50;;;;;;5035646;28;20025;-71
2023/08/07 07:25:57;;;;;;;3.20;1.85;;;12.80;72.80;;;;;;5035335;28;20112;-70
2023/08/07 07:28:23;;;;;;;4.18;2.17;;;12.70;74.40;;;;;;5035116;28;20045;-71
2023/08/07 07:30:49;;;;;;;2.97;1.70;;;12.60;75.10;;;;;;5035390;28;20029;-73
2023/08/07 07:33:15;;;;;;;4.68;2.33;;;12.50;77.20;;;;;;5035217;28;20068;-71
2023/08/07 07:35:40;;;;;;;3.67;2.15;;;12.50;77.80;;;;;;5035184;28;20045;-69
2023/08/07 07:38:07;;;;;;;6.88;2.65;;;12.40;78.50;;;;;;5035535;28;20083;-71
2023/08/07 07:40:34;;;;;;;4.72;2.60;;;12.40;79.90;;;;;;5037179;28;20026;-69
2023/08/07 07:43:00;;;;;;;6.60;2.42;;;12.40;80.60;;;;;;5036444;28;20021;-83
2023/08/07 07:45:25;;;;;;;4.60;2.35;;;12.40;81.30;;;;;;5035617;28;20029;-71
2023/08/07 07:47:51;;;;;;;6.35;2.67;;;12.40;81.60;;;;;;5035632;28;20080;-70
2023/08/07 07:50:16;;;;;;;4.40;2.38;;;12.40;83.20;;;;;;5017851;28;20400;-71
2023/08/07 07:52:43;;;;;;;6.90;2.30;;;12.50;82.90;;;;;;5035340;28;20108;-80
2023/08/07 07:55:09;;;;;;;5.55;2.20;;;12.50;82.50;;;;;;5035575;28;20392;-72
2023/08/07 07:57:34;;;;;;;5.18;2.60;;;12.60;81.70;;;;;;5034698;28;20429;-70
2023/08/07 08:00:01;;;;;;;4.78;1.92;;;12.60;81.60;;;;;;5035896;28;20041;-74
2023/08/07 08:02:26;;;;;;;4.07;2.45;;;12.70;83.10;;;;;;5035412;28;20021;-69
2023/08/07 08:04:52;;;;;;;5.00;2.83;;;12.80;82.30;;;;;;5034820;28;20478;-69
2023/08/07 08:07:18;;;;;;;3.63;2.30;;;13.00;81.90;;;;;;5035038;28;20033;-71
2023/08/07 08:09:44;;;;;;;3.78;2.10;;;13.10;81.90;;;;;;5017180;28;20026;-70
2023/08/07 08:12:10;;;;;;;4.18;2.28;;;13.10;78.80;;;;;;5034716;28;20018;-71
2023/08/07 08:14:35;;;;;;;2.20;2.00;;;13.00;80.80;;;;;;5037839;28;20097;-71
2023/08/07 08:17:01;;;;;;;3.30;1.90;;;13.10;80.30;;;;;;5034978;28;20021;-71
2023/08/07 08:19:27;;;;;;;3.17;2.38;;;12.90;80.40;;;;;;5017195;28;20527;-71
2023/08/07 08:21:52;;;;;;;5.25;2.15;;;12.80;80.20;;;;;;5034589;28;20022;-70
2023/08/07 08:24:18;;;;;;;3.63;2.20;;;12.70;80.50;;;;;;5034698;28;20036;-71
2023/08/07 08:26:43;;;;;;;4.35;2.40;;;12.70;80.50;;;;;;5034274;28;20034;-70
2023/08/07 08:29:09;;;;;;;4.75;2.45;;;12.70;80.90;;;;;;5034305;28;20023;-70
2023/08/07 08:31:35;;;;;;;3.85;2.72;;;12.70;82.00;;;;;;5034293;28;20189;-70
2023/08/07 08:34:00;;;;;;;3.85;2.10;;;12.70;81.50;;;;;;5034419;28;20066;-73
2023/08/07 08:36:26;;;;;;;3.25;2.72;;;12.70;81.40;;;;;;5034550;28;20437;-72
2023/08/07 08:38:52;;;;;;;5.93;2.92;;;12.70;82.10;;;;;;5034249;28;20106;-71
2023/08/07 08:41:18;;;;;;;4.07;2.60;;;12.70;80.80;;;;;;5034252;28;20477;-71
2023/08/07 08:43:46;;;;;;;4.18;2.30;;;12.60;81.20;;;;;;5035792;28;20089;-71
2023/08/07 08:46:16;;;;;;;3.95;2.30;;;12.60;81.70;;;;;;5035975;28;20041;-71
2023/08/07 08:48:46;;;;;;;3.65;2.33;;;12.80;80.70;;;;;;5034290;28;20025;-71
2023/08/07 08:51:13;;;;;;;5.95;2.83;;;13.10;82.20;;;;;;5035117;28;20041;-75
2023/08/07 08:53:39;;;;;;;4.55;2.70;;;13.30;80.50;;;;;;5034136;28;20466;-72
2023/08/07 08:56:06;;;;;;;3.83;2.22;;;13.60;80.10;;;;;;5034082;28;20025;-72
2023/08/07 08:58:32;;;;;;;3.05;2.13;;;13.80;77.00;;;;;;5024929;28;20021;-71
2023/08/07 09:00:58;;;;;;;4.43;2.30;;;13.90;76.50;;;;;;5024557;28;20414;-71
2023/08/07 09:03:25;;;;;;;4.38;2.63;;;14.00;75.50;;;;;;5022417;28;20030;-71
2023/08/07 09:05:54;;;;;;;2.85;1.85;;;14.00;76.70;;;;;;5023348;28;20342;-70
2023/08/07 09:08:22;;;;;;;7.03;2.50;;;14.00;77.00;;;;;;5023745;28;20117;-71
2023/08/07 09:10:48;;;;;;;3.38;1.98;;;14.00;72.90;;;;;;5023281;28;20422;-70
2023/08/07 09:13:16;;;;;;;4.80;2.00;;;13.90;74.30;;;;;;5027755;28;20152;-70
2023/08/07 09:15:47;;;;;;;3.45;2.03;;;13.90;73.50;;;;;;5033705;28;20104;-71
2023/08/07 09:18:13;;;;;;;3.28;2.10;;;14.00;74.10;;;;;;5033396;28;20541;-71
2023/08/07 09:20:39;;;;;;;3.55;2.00;;;14.10;73.20;;;;;;5033505;28;20105;-71
2023/08/07 09:23:05;;;;;;;3.60;1.88;;;14.10;72.90;;;;;;5033553;28;20088;-72
2023/08/07 09:25:33;;;;;;;3.00;1.70;;;14.20;70.50;;;;;;5033315;28;20458;-70
2023/08/07 09:28:04;;;;;;;1.92;1.73;;;14.30;70.40;;;;;;5033502;28;20033;-73
2023/08/07 09:30:30;;;;;;;2.72;2.00;;;14.40;68.40;;;;;;5035750;28;20029;-77
2023/08/07 09:33:02;;;;;;;4.10;1.70;;;14.30;67.90;;;;;;5035983;28;20034;-71
2023/08/07 09:35:31;;;;;;;4.20;1.90;;;14.30;66.80;;;;;;5035196;28;20029;-82
2023/08/07 09:37:57;;;;;;;3.42;1.65;;;14.30;66.70;;;;;;5034066;28;20040;-73
2023/08/07 09:40:23;;;;;;;2.33;1.55;;;14.40;67.10;;;;;;5034429;28;20056;-77
2023/08/07 09:42:53;;;;;;;6.82;1.70;;;14.50;67.90;;;;;;5034313;28;20089;-76
2023/08/07 09:45:22;;;;;;;3.60;1.90;;;14.50;68.20;;;;;;5033887;28;20093;-75
2023/08/07 09:47:58;;;;;;;2.92;1.83;;;14.30;67.80;;;;;;5032718;28;20388;-71
2023/08/07 09:50:24;;;;;;;2.83;1.40;;;14.50;67.20;;;;;;5019036;28;20018;-71
2023/08/07 09:52:49;;;;;;;1.77;1.40;;;14.70;67.00;;;;;;5023296;28;20028;-71
2023/08/07 09:55:18;;;;;;;1.65;1.55;;;14.80;64.30;;;;;;5010321;28;20022;-70
2023/08/07 09:57:44;;;;;;;4.55;1.42;;;14.80;63.30;;;;;;5024395;28;20021;-71
2023/08/07 10:00:11;;;;;;;4.25;1.55;;;14.70;64.00;;;;;;5032164;28;20021;-70
2023/08/07 10:02:37;;;;;;;2.03;1.75;;;14.60;63.60;;;;;;5032312;28;20025;-71
2023/08/07 10:05:05;;;;;;;3.50;1.98;;;14.60;65.00;;;;;;5032339;28;20049;-71
2023/08/07 10:07:31;;;;;;;2.60;1.50;;;14.70;64.80;;;;;;5032300;28;20038;-72
2023/08/07 10:09:59;;;;;;;2.63;1.55;;;14.70;65.10;;;;;;5014775;28;20029;-71
2023/08/07 10:12:26;;;;;;;4.00;1.75;;;14.90;64.50;;;;;;5032557;28;20033;-71
2023/08/07 10:14:53;;;;;;;2.33;1.60;;;15.00;62.10;;;;;;5033398;28;20029;-71
2023/08/07 10:17:21;;;;;;;3.47;1.70;;;15.10;62.00;;;;;;5032874;28;20021;-71
2023/08/07 10:19:46;;;;;;;3.30;1.98;;;15.10;60.60;;;;;;5037711;28;20033;-73
2023/08/07 10:22:13;;;;;;;2.88;1.50;;;15.00;60.30;;;;;;5036527;28;20108;-71
2023/08/07 10:24:42;;;;;;;1.98;1.50;;;14.90;62.60;;;;;;5036560;28;20501;-72
2023/08/07 10:27:09;;;;;;;3.00;2.28;;;14.80;62.80;;;;;;5036346;28;20033;-72
2023/08/07 10:29:36;;;;;;;5.20;1.98;;;14.60;64.70;;;;;;5036559;28;20495;-72
2023/08/07 10:32:04;;;;;;;1.95;1.60;;;14.40;64.00;;;;;;5036687;28;20028;-72
2023/08/07 10:34:32;;;;;;;3.25;2.03;;;14.40;64.50;;;;;;5036669;28;20104;-71
2023/08/07 10:36:58;;;;;;;4.00;1.90;;;14.60;64.40;;;;;;5036028;28;20095;-74
2023/08/07 10:39:23;;;;;;;4.38;1.80;;;14.50;64.50;;;;;;5036102;28;20580;-71
2023/08/07 10:41:54;;;;;;;1.98;1.30;;;14.60;64.10;;;;;;5035979;28;20371;-71
2023/08/07 10:44:21;;;;;;;1.45;1.35;;;14.40;63.50;;;;;;5036451;28;20033;-70
2023/08/07 10:46:54;;;;;;;1.75;1.60;;;14.60;64.00;;;;;;5036184;28;20068;-71
2023/08/07 10:49:33;;;;;;;4.50;1.60;;;14.90;65.10;;;;;;5036141;28;20044;-71
2023/08/07 10:52:17;;;;;;;3.00;1.48;;;14.80;63.80;;;;;;5036266;28;20052;-71
2023/08/07 10:54:48;;;;;;;3.25;1.88;;;14.80;64.00;;;;;;5035996;28;20029;-70
2023/08/07 10:57:15;;;;;;;2.80;1.88;;;14.80;63.40;;;;;;5036099;28;20092;-72
2023/08/07 11:00:05;;;;;;;2.65;1.67;;;15.00;62.40;;;;;;5035948;28;20024;-72
2023/08/07 11:02:33;;;;;;;1.83;1.23;;;15.40;60.90;;;;;;5025487;28;20433;-71
2023/08/07 11:04:59;;;;;;;2.40;1.50;;;15.70;60.60;;;;;;5018107;28;20052;-71
2023/08/07 11:07:26;;;;;;;3.22;1.40;;;15.90;61.40;;;;;;5035951;28;20038;-72
2023/08/07 11:09:52;;;;;;;2.53;1.25;;;16.00;60.40;;;;;;5035873;28;20033;-72
2023/08/07 11:12:18;;;;;;;1.60;1.08;;;16.00;57.30;;;;;;5035600;28;20076;-71
2023/08/07 11:14:44;;;;;;;2.72;1.30;;;16.00;56.60;;;;;;5035720;28;20032;-71
2023/08/07 11:17:09;;;;;;;4.43;1.40;;;15.90;56.30;;;;;;5035818;28;20122;-71
2023/08/07 11:19:35;;;;;;;2.63;1.45;;;16.00;56.90;;;;;;5018124;28;20433;-74
2023/08/07 11:22:01;;;;;;;3.50;1.40;;;16.50;56.90;;;;;;5035576;28;20075;-72
2023/08/07 11:24:27;;;;;;;9.18;1.92;;;16.60;54.30;;;;;;5035521;28;20383;-72
2023/08/07 11:26:55;;;;;;;4.05;1.48;;;16.50;55.80;;;;;;5035306;28;20099;-72
2023/08/07 11:29:23;;;;;;;1.58;1.30;;;16.70;53.30;;;;;;5035405;28;20382;-73
2023/08/07 11:31:50;;;;;;;2.67;1.40;;;17.00;53.90;;;;;;5034812;28;20066;-73
2023/08/07 11:34:18;;;;;;;2.30;1.35;;;17.10;53.10;;;;;;5035446;28;20032;-73
2023/08/07 11:36:44;;;;;;;2.67;1.52;;;17.00;54.20;;;;;;5035485;28;20065;-73
2023/08/07 11:39:11;;;;;;;2.10;1.20;;;17.20;52.30;;;;;;5035245;28;20025;-72
2023/08/07 11:41:36;;;;;;;7.10;1.35;;;17.20;52.60;;;;;;5035276;28;20557;-72
2023/08/07 11:44:02;;;;;;;1.63;1.35;;;17.40;51.30;;;;;;5035284;28;20056;-72
2023/08/07 11:46:29;;;;;;;3.30;1.33;;;17.00;52.70;;;;;;5034628;28;20486;-72
2023/08/07 11:48:56;;;;;;;4.70;1.48;;;17.10;51.60;;;;;;5035209;28;20025;-72
2023/08/07 11:51:22;;;;;;;1.75;1.30;;;17.50;52.70;;;;;;5035014;28;20040;-72
2023/08/07 11:53:48;;;;;;;2.60;1.48;;;17.70;50.30;;;;;;5035159;28;20624;-72
2023/08/07 11:56:18;;;;;;;2.63;1.33;;;17.70;51.80;;;;;;5035140;28;20049;-76
2023/08/07 11:58:48;;;;;;;2.28;1.40;;;17.80;49.70;;;;;;5035219;28;20072;-76
2023/08/07 12:01:21;;;;;;;3.72;1.58;;;17.60;50.80;;;;;;5017071;28;20025;-76
2023/08/07 12:04:08;;;;;;;1.90;1.10;;;17.30;50.90;;;;;;5033872;28;20017;-73
2023/08/07 12:06:35;;;;;;;1.75;1.20;;;17.70;50.40;;;;;;5010615;28;20406;-76
2023/08/07 12:09:01;;;;;;;1.60;1.40;;;17.40;48.80;;;;;;5025248;28;20014;-77
2023/08/07 12:11:30;;;;;;;3.17;1.20;;;16.90;50.60;;;;;;5023411;28;20085;-72
2023/08/07 12:13:56;;;;;;;1.60;1.20;;;16.60;52.20;;;;;;5022676;28;20022;-72
2023/08/07 12:16:21;;;;;;;1.95;1.20;;;16.70;52.10;;;;;;5024598;28;20024;-76
2023/08/07 12:18:51;;;;;;;1.77;1.20;;;16.90;51.40;;;;;;5030513;28;20021;-76
2023/08/07 12:21:26;;;;;;;3.67;1.45;;;17.00;49.50;;;;;;5024383;28;20035;-77
2023/08/07 12:23:54;;;;;;;2.25;1.10;;;17.10;47.70;;;;;;5028997;28;20030;-77
2023/08/07 12:26:20;;;;;;;1.70;1.20;;;16.80;47.40;;;;;;5034120;28;20102;-75
2023/08/07 12:28:45;;;;;;;3.22;1.20;;;16.90;48.00;;;;;;5034542;28;20057;-77
2023/08/07 12:31:11;;;;;;;2.67;1.38;;;17.00;48.30;;;;;;5034362;28;20028;-72
2023/08/07 12:33:37;;;;;;;2.67;1.58;;;17.20;46.70;;;;;;5030830;28;20467;-77
2023/08/07 12:36:02;;;;;;;1.45;1.20;;;16.90;46.90;;;;;;5022709;28;20462;-73
2023/08/07 12:38:28;;;;;;;1.33;1.05;;;16.40;49.20;;;;;;5024855;28;20458;-78
2023/08/07 12:40:54;;;;;;;2.00;1.30;;;16.40;50.80;;;;;;5024473;28;20025;-78
2023/08/07 12:43:20;;;;;;;2.38;1.40;;;16.40;52.10;;;;;;5030333;28;20104;-79
2023/08/07 12:45:46;;;;;;;4.80;1.45;;;16.30;52.40;;;;;;5034403;28;20083;-79